createdAt,value
2023-03-23T15:59:55.781Z,63.30
2023-03-23T16:02:25.330Z,63.08
2023-03-23T16:04:52.438Z,63.30
2023-03-23T16:07:22.427Z,63.06
2023-03-23T16:09:49.072Z,63.34
2023-03-23T16:12:15.724Z,63.39
2023-03-23T16:14:42.411Z,63.48
2023-03-23T16:17:15.870Z,64.03
2023-03-23T16:19:42.533Z,64.08
2023-03-23T16:22:09.916Z,64.00
2023-03-23T16:24:36.663Z,64.69
2023-03-23T16:27:03.283Z,64.30
2023-03-23T16:32:01.440Z,64.76
2023-03-23T16:34:30.155Z,64.85
2023-03-23T16:36:56.822Z,65.13
2023-03-23T16:39:23.751Z,65.32
2023-03-23T16:41:50.651Z,65.65
2023-03-23T16:44:17.360Z,66.16
2023-03-23T16:46:44.345Z,66.33
2023-03-23T16:49:11.128Z,66.17
2023-03-23T16:51:37.930Z,66.33
2023-03-23T16:54:04.699Z,66.39
2023-03-23T16:56:31.389Z,66.71
2023-03-23T16:58:58.095Z,66.38
2023-03-23T17:01:24.750Z,66.33
2023-03-23T17:03:51.525Z,65.96
2023-03-23T17:06:18.213Z,65.90
2023-03-23T17:08:44.866Z,65.40
2023-03-23T17:11:11.577Z,65.52
2023-03-23T17:13:38.478Z,65.33
2023-03-23T17:16:05.760Z,65.09
2023-03-23T17:18:32.500Z,64.83
2023-03-23T17:20:59.179Z,65.05
2023-03-23T17:23:26.177Z,65.13
2023-03-23T17:25:53.913Z,65.12
2023-03-23T17:28:21.123Z,64.98
2023-03-23T17:30:48.516Z,65.05
2023-03-23T17:33:15.414Z,65.00
2023-03-23T17:35:42.698Z,65.28
2023-03-23T17:38:09.763Z,65.06
2023-03-23T17:40:36.697Z,65.12
2023-03-23T17:43:04.085Z,64.92
2023-03-23T17:45:30.974Z,65.25
2023-03-23T17:47:57.666Z,64.75
2023-03-23T17:50:24.416Z,64.85
2023-03-23T17:52:51.135Z,64.85
2023-03-23T17:55:17.776Z,65.17
2023-03-23T17:57:44.976Z,65.27
2023-03-23T18:00:13.296Z,65.45
2023-03-23T18:02:40.031Z,65.53
2023-03-23T18:05:09.386Z,65.33
2023-03-23T18:07:37.022Z,65.46
2023-03-23T18:10:11.829Z,65.58
2023-03-23T18:12:40.149Z,65.85
2023-03-23T18:15:07.387Z,65.77
2023-03-23T18:17:34.125Z,66.21
2023-03-23T18:20:01.420Z,66.09
2023-03-23T18:22:28.065Z,65.81
2023-03-23T18:24:55.399Z,65.86
2023-03-23T18:27:22.015Z,65.92
2023-03-23T18:29:48.666Z,66.11
2023-03-23T18:32:17.119Z,66.35
2023-03-23T18:34:43.906Z,66.49
2023-03-23T18:37:10.869Z,66.52
2023-03-23T18:39:38.539Z,66.44
2023-03-23T18:42:06.294Z,66.66
2023-03-23T18:44:33.313Z,66.75
2023-03-23T18:47:00.597Z,66.85
2023-03-23T18:49:29.026Z,66.97
2023-03-23T18:51:56.109Z,67.05
2023-03-23T18:54:22.755Z,66.90
2023-03-23T18:56:49.494Z,67.12
2023-03-23T18:59:16.311Z,67.31
2023-03-23T19:01:43.417Z,67.71
2023-03-23T19:04:14.602Z,67.75
2023-03-23T19:06:41.413Z,67.76
2023-03-23T19:09:08.056Z,68.02
2023-03-23T19:11:34.685Z,68.16
2023-03-23T19:14:03.399Z,68.56
2023-03-23T19:16:35.948Z,68.51
2023-03-23T19:19:05.347Z,68.88
2023-03-23T19:21:32.597Z,69.10
2023-03-23T19:24:00.893Z,69.11
2023-03-23T19:26:36.895Z,69.06
2023-03-23T19:29:26.150Z,69.19
2023-03-23T19:31:55.556Z,69.25
2023-03-23T19:34:23.796Z,69.19
2023-03-23T19:36:55.237Z,69.10
2023-03-23T19:39:30.186Z,68.87
2023-03-23T19:41:56.858Z,69.31
2023-03-23T19:44:23.545Z,69.22
2023-03-23T19:46:50.718Z,69.32
2023-03-23T19:49:17.892Z,69.19
2023-03-23T19:51:44.963Z,69.49
2023-03-23T19:54:13.200Z,69.20
2023-03-23T19:56:40.164Z,69.22
2023-03-23T19:59:10.579Z,69.36
2023-03-23T20:01:37.786Z,69.26
2023-03-23T20:04:05.545Z,69.27
2023-03-23T20:06:34.047Z,68.92
2023-03-23T20:09:01.351Z,69.55
2023-03-23T20:11:29.671Z,69.34
2023-03-23T20:13:57.699Z,69.08
2023-03-23T20:16:25.350Z,69.52
2023-03-23T20:18:53.418Z,69.75
2023-03-23T20:21:25.401Z,69.62
2023-03-23T20:23:55.917Z,69.87
2023-03-23T20:26:28.814Z,69.81
2023-03-23T20:28:56.049Z,70.12
2023-03-23T20:31:26.749Z,69.79
2023-03-23T20:34:02.051Z,70.31
2023-03-23T20:36:35.167Z,70.09
2023-03-23T20:39:08.236Z,70.63
2023-03-23T20:41:38.841Z,70.73
2023-03-23T20:44:08.032Z,70.37
2023-03-23T20:46:35.348Z,70.52
2023-03-23T20:49:02.565Z,70.70
2023-03-23T20:51:29.208Z,70.81
2023-03-23T20:53:55.852Z,70.93
2023-03-23T20:56:22.510Z,71.28
2023-03-23T20:58:49.242Z,71.33
2023-03-23T21:01:16.009Z,71.18
2023-03-23T21:03:44.026Z,72.02
2023-03-23T21:06:10.855Z,72.31
2023-03-23T21:08:39.516Z,72.75
2023-03-23T21:11:09.246Z,73.14
2023-03-23T21:13:36.838Z,73.79
2023-03-23T21:16:04.293Z,74.44
2023-03-23T21:18:31.757Z,74.63
2023-03-23T21:21:00.285Z,74.93
2023-03-23T21:23:30.474Z,74.78
2023-03-23T21:26:02.764Z,75.43
2023-03-23T21:28:30.765Z,75.62
2023-03-23T21:31:06.042Z,76.53
2023-03-23T21:33:33.183Z,76.61
2023-03-23T21:36:01.002Z,77.04
2023-03-23T21:38:28.622Z,77.53
2023-03-23T21:40:58.523Z,78.69
2023-03-23T21:43:29.794Z,79.60
2023-03-23T21:45:58.951Z,81.08
2023-03-23T21:48:27.543Z,81.84
2023-03-23T21:50:54.884Z,82.66
2023-03-23T21:53:23.223Z,82.27
2023-03-23T21:55:54.623Z,82.64
2023-03-23T21:58:24.213Z,82.15
2023-03-23T22:00:54.119Z,81.78
2023-03-23T22:03:23.570Z,81.29
2023-03-23T22:05:54.190Z,79.99
2023-03-23T22:08:22.617Z,79.44
2023-03-23T22:11:01.387Z,79.74
2023-03-23T22:13:31.169Z,80.46
2023-03-23T22:15:59.384Z,81.30
2023-03-23T22:18:26.660Z,81.50
2023-03-23T22:20:53.822Z,81.90
2023-03-23T22:23:20.774Z,82.26
2023-03-23T22:25:47.569Z,83.38
2023-03-23T22:28:14.716Z,83.96
2023-03-23T22:30:41.327Z,84.86
2023-03-23T22:33:08.257Z,85.96
2023-03-23T22:35:35.040Z,85.93
2023-03-23T22:38:03.768Z,86.58
2023-03-23T22:40:32.942Z,86.80
2023-03-23T22:43:06.718Z,87.32
2023-03-23T22:45:35.128Z,87.35
2023-03-23T22:48:08.627Z,87.94
2023-03-23T22:50:39.350Z,87.82
2023-03-23T22:53:07.836Z,87.41
2023-03-23T22:55:36.701Z,87.25
2023-03-23T22:58:05.089Z,88.34
2023-03-23T23:01:25.745Z,89.66
2023-03-23T23:04:29.804Z,94.27
2023-03-23T23:07:11.999Z,96.17
2023-03-23T23:09:45.560Z,96.43
2023-03-23T23:12:15.566Z,98.08
2023-03-23T23:14:44.347Z,99.35
2023-03-23T23:17:13.006Z,100.00
2023-03-23T23:19:41.059Z,100.00
2023-03-23T23:22:31.987Z,100.00
2023-03-23T23:25:00.420Z,100.00
2023-03-23T23:27:45.951Z,100.00
2023-03-23T23:30:37.967Z,100.00
2023-03-23T23:33:08.083Z,100.00
2023-03-23T23:35:37.268Z,100.00
2023-03-23T23:38:15.994Z,99.87
2023-03-23T23:40:46.920Z,98.95
2023-03-23T23:43:17.350Z,98.00
2023-03-23T23:45:45.833Z,96.90
2023-03-23T23:48:14.484Z,96.64
2023-03-23T23:50:43.423Z,95.62
2023-03-23T23:53:35.527Z,94.36
2023-03-23T23:56:08.299Z,93.72
2023-03-23T23:58:36.030Z,93.14
